Impacts TAF Board
For situational awareness. Not to be used for flight planning purposes.
IDs:

KROW - Roswell/Ind Arpt, NM, US

Issued at 1120 UTC 30 Oct 2020
Updated at 1608 UTC 30 Oct 2020
Potential Impact None Slight Moderate High
Time1551Z 30/17Z 30/18Z 30/19Z 30/20Z 30/21Z 30/22Z 30/23Z 31/00Z 31/01Z 31/02Z 31/03Z 31/04Z 31/05Z>>
Type OBS PRVL PRVL PRVL PRVL
  [TEMP]  
PRVL
  [TEMP]  
PRVL
  [TEMP]  
PRVL
  [TEMP]  
PRVL PRVL PRVL PRVL PRVL PRVL
VIS 10 >6 >6 >6 >6 >6 >6 >6 >6 >6 >6 >6 >6 >6
CIG -- -- -- -- --
  [--]  
--
  [--]  
--
  [--]  
--
  [--]  
-- -- -- -- -- --
Cover CLR SCT SCT SCT SCT
  [SCT]  
SCT
  [SCT]  
SCT
  [SCT]  
SCT
  [SCT]  
SCT SCT SCT SCT SCT SCT
FltCat VFR VFR VFR VFR VFR
  [VFR]  
VFR
  [VFR]  
VFR
  [VFR]  
VFR
  [VFR]  
VFR VFR VFR VFR VFR VFR
WX -- -- -- -- --
  [--]  
--
  [--]  
--
  [--]  
--
  [--]  
-- -- -- -- -- --
WDir VRB VRB VRB VRB VRB
[160]
VRB
[160]
VRB
[160]
VRB
[160]
VRB VRB VRB VRB VRB VRB
WSpd 0 6 6 6 6
  [7]  
6
  [7]  
6
  [7]  
6
  [7]  
6 6 6 6 6 6
WGst -- -- -- -- --
  [--]  
--
  [--]  
--
  [--]  
--
  [--]  
-- -- -- -- -- --
Raw TAF
KROW 301120Z 3012/3112 VRB06KT P6SM SCT250
  TEMPO 3020/3024 16007KT


Raw METAR
KROW 301551Z 00000KT 10SM CLR 09/02 A3030 RMK AO2 SLP238 T00890022
KROW 301451Z 35003KT 10SM CLR 07/02 A3030 RMK AO2 SLP241 T00670022 53010
KROW 301351Z 00000KT 10SM CLR 04/01 A3028 RMK AO2 SLP235 T00440011

METAR Board
Radar Display
Forecast Discussion
For situational awareness. Not to be used for flight planning purposes.